EJU97SJ LEBL-LSGG
Flight info
| Callsign | EJU97SJ |
|---|---|
| Flight time | 1h 26m |
| Altitude | 36000 |
| Route | DALIN DCT PIVUS DCT DIBER DCT ADITA DCT MAXIR DCT LUSOL DCT BODRU DCT OKTET DCT IRMAR DCT KINES |
| Aircraft | A320/M-SDE2E3FGHIJ1RWXYZ/LB1 |
Departure
| Time | 2026-05-04 16:43 |
|---|---|
| Airport | Josep Tarradellas Barcelona-El Prat Airport (LEBL) |
Arrival
| Time | 2026-05-04 18:09 |
|---|---|
| Airport | Geneva International Airport (LSGG) |
| Time | Latitude | Longitude | Altitude | Speed | Heading |
|---|---|---|---|---|---|
| 2026-05-04 15:59 | 41.30322 | 2.08186 | 23 ft | 0 kts | 26° |
| 2026-05-04 16:15 | 41.30255 | 2.08185 | 20 ft | 4 kts | 326° |
| 2026-05-04 16:16 | 41.30228 | 2.08238 | 22 ft | 3 kts | 255° |
| 2026-05-04 16:16 | 41.30228 | 2.08241 | 22 ft | 0 kts | 252° |
| 2026-05-04 16:20 | 41.30221 | 2.08216 | 20 ft | 2 kts | 249° |
| 2026-05-04 16:20 | 41.30211 | 2.08189 | 19 ft | 6 kts | 230° |
| 2026-05-04 16:21 | 41.30108 | 2.08082 | 18 ft | 9 kts | 246° |
| 2026-05-04 16:22 | 41.30057 | 2.07933 | 17 ft | 8 kts | 245° |
| 2026-05-04 16:22 | 41.29975 | 2.07696 | 17 ft | 13 kts | 245° |
| 2026-05-04 16:23 | 41.29843 | 2.07311 | 16 ft | 16 kts | 245° |
| 2026-05-04 16:24 | 41.29703 | 2.06884 | 16 ft | 7 kts | 245° |
| 2026-05-04 16:25 | 41.29672 | 2.06792 | 16 ft | 7 kts | 245° |
| 2026-05-04 16:26 | 41.29535 | 2.06396 | 17 ft | 15 kts | 245° |
| 2026-05-04 16:26 | 41.29348 | 2.06127 | 16 ft | 10 kts | 176° |
| 2026-05-04 16:27 | 41.29294 | 2.06150 | 16 ft | 0 kts | 155° |
| 2026-05-04 16:28 | 41.29242 | 2.06181 | 15 ft | 9 kts | 155° |
| 2026-05-04 16:28 | 41.29018 | 2.06446 | 16 ft | 17 kts | 110° |
| 2026-05-04 16:29 | 41.29130 | 2.06912 | 17 ft | 11 kts | 65° |
| 2026-05-04 16:30 | 41.29205 | 2.07135 | 17 ft | 7 kts | 65° |
| 2026-05-04 16:31 | 41.29241 | 2.07239 | 18 ft | 6 kts | 65° |
| 2026-05-04 16:31 | 41.29325 | 2.07481 | 17 ft | 14 kts | 65° |
| 2026-05-04 16:32 | 41.29421 | 2.07792 | 15 ft | 10 kts | 66° |
| 2026-05-04 16:33 | 41.29473 | 2.07942 | 15 ft | 8 kts | 65° |
| 2026-05-04 16:33 | 41.29517 | 2.08070 | 16 ft | 10 kts | 65° |
| 2026-05-04 16:34 | 41.29569 | 2.08267 | 16 ft | 10 kts | 89° |
| 2026-05-04 16:34 | 41.29584 | 2.08344 | 18 ft | 7 kts | 67° |
| 2026-05-04 16:35 | 41.29616 | 2.08510 | 17 ft | 11 kts | 122° |
| 2026-05-04 16:35 | 41.29376 | 2.08663 | 18 ft | 7 kts | 155° |
| 2026-05-04 16:36 | 41.29340 | 2.08685 | 18 ft | 4 kts | 155° |
| 2026-05-04 16:36 | 41.29231 | 2.08752 | 17 ft | 13 kts | 155° |
| 2026-05-04 16:37 | 41.29032 | 2.08875 | 15 ft | 18 kts | 155° |
| 2026-05-04 16:37 | 41.28955 | 2.08981 | 16 ft | 17 kts | 83° |
| 2026-05-04 16:37 | 41.29039 | 2.09247 | 18 ft | 14 kts | 66° |
| 2026-05-04 16:38 | 41.29110 | 2.09455 | 17 ft | 11 kts | 65° |
| 2026-05-04 16:39 | 41.29202 | 2.09717 | 17 ft | 14 kts | 65° |
| 2026-05-04 16:39 | 41.29279 | 2.09926 | 17 ft | 11 kts | 53° |
| 2026-05-04 16:40 | 41.29325 | 2.10082 | 16 ft | 8 kts | 103° |
| 2026-05-04 16:40 | 41.29299 | 2.10172 | 14 ft | 0 kts | 111° |
| 2026-05-04 16:42 | 41.29204 | 2.10258 | 16 ft | 14 kts | 224° |
| 2026-05-04 16:43 | 41.28852 | 2.09249 | 19 ft | 121 kts | 245° |
| 2026-05-04 16:43 | 41.27933 | 2.06708 | 799 ft | 161 kts | 232° |
| 2026-05-04 16:43 | 41.27034 | 2.05861 | 1462 ft | 166 kts | 193° |
| 2026-05-04 16:44 | 41.21467 | 2.05722 | 3872 ft | 213 kts | 181° |
| 2026-05-04 16:45 | 41.18471 | 2.05688 | 5513 ft | 218 kts | 182° |
| 2026-05-04 16:46 | 41.13682 | 2.05515 | 7641 ft | 239 kts | 185° |
| 2026-05-04 16:46 | 41.10337 | 2.05348 | 9359 ft | 242 kts | 186° |
| 2026-05-04 16:47 | 41.06943 | 2.05181 | 10946 ft | 246 kts | 186° |
| 2026-05-04 16:47 | 41.03478 | 2.05013 | 12453 ft | 252 kts | 186° |
| 2026-05-04 16:48 | 40.98703 | 2.07986 | 14171 ft | 308 kts | 121° |
| 2026-05-04 16:48 | 40.97897 | 2.10757 | 14323 ft | 335 kts | 114° |
| 2026-05-04 16:49 | 40.96316 | 2.16944 | 14892 ft | 368 kts | 112° |
| 2026-05-04 16:49 | 40.95040 | 2.23599 | 16062 ft | 384 kts | 95° |
| 2026-05-04 16:50 | 40.96254 | 2.30549 | 17245 ft | 399 kts | 61° |
| 2026-05-04 16:50 | 40.99897 | 2.36131 | 18436 ft | 406 kts | 44° |
| 2026-05-04 16:51 | 41.03941 | 2.41504 | 18885 ft | 410 kts | 44° |
| 2026-05-04 16:51 | 41.05951 | 2.44191 | 18904 ft | 410 kts | 44° |
| 2026-05-04 16:51 | 41.09966 | 2.49572 | 19707 ft | 416 kts | 44° |
| 2026-05-04 16:52 | 41.14077 | 2.55084 | 20746 ft | 424 kts | 44° |
| 2026-05-04 16:52 | 41.16160 | 2.57876 | 21246 ft | 428 kts | 44° |
| 2026-05-04 16:53 | 41.20379 | 2.63539 | 22189 ft | 435 kts | 44° |
| 2026-05-04 16:53 | 41.26835 | 2.72254 | 23534 ft | 447 kts | 44° |
| 2026-05-04 16:54 | 41.29022 | 2.75217 | 23906 ft | 450 kts | 44° |
| 2026-05-04 16:55 | 41.37914 | 2.87257 | 25466 ft | 461 kts | 45° |
| 2026-05-04 16:55 | 41.42436 | 2.93388 | 26191 ft | 467 kts | 45° |
| 2026-05-04 16:56 | 41.47009 | 2.99620 | 26901 ft | 473 kts | 45° |
| 2026-05-04 16:56 | 41.53957 | 3.09115 | 27960 ft | 480 kts | 45° |
| 2026-05-04 16:57 | 41.56293 | 3.12314 | 28349 ft | 482 kts | 45° |
| 2026-05-04 16:57 | 41.60992 | 3.18750 | 29038 ft | 486 kts | 45° |
| 2026-05-04 16:58 | 41.68128 | 3.28552 | 29996 ft | 494 kts | 46° |
| 2026-05-04 16:58 | 41.70527 | 3.31858 | 30254 ft | 497 kts | 46° |
| 2026-05-04 16:59 | 41.74522 | 3.39318 | 30708 ft | 499 kts | 66° |
| 2026-05-04 17:00 | 41.80238 | 3.56398 | 31756 ft | 504 kts | 69° |
| 2026-05-04 17:00 | 41.84512 | 3.69323 | 32695 ft | 506 kts | 69° |
| 2026-05-04 17:01 | 41.87353 | 3.77956 | 33337 ft | 506 kts | 69° |
| 2026-05-04 17:01 | 41.90191 | 3.86620 | 33935 ft | 507 kts | 69° |
| 2026-05-04 17:02 | 41.92563 | 3.93879 | 34421 ft | 507 kts | 69° |
| 2026-05-04 17:02 | 41.95376 | 4.02494 | 34932 ft | 507 kts | 69° |
| 2026-05-04 17:03 | 41.96788 | 4.06833 | 35193 ft | 507 kts | 69° |
| 2026-05-04 17:03 | 41.98199 | 4.11179 | 35454 ft | 507 kts | 69° |
| 2026-05-04 17:03 | 42.01006 | 4.19865 | 35854 ft | 507 kts | 68° |
| 2026-05-04 17:04 | 42.06632 | 4.37063 | 35922 ft | 501 kts | 63° |
| 2026-05-04 17:05 | 42.10697 | 4.44657 | 35928 ft | 500 kts | 44° |
| 2026-05-04 17:05 | 42.15839 | 4.50930 | 35925 ft | 498 kts | 40° |
| 2026-05-04 17:06 | 42.23580 | 4.60262 | 35911 ft | 497 kts | 40° |
| 2026-05-04 17:07 | 42.30426 | 4.68564 | 35937 ft | 497 kts | 40° |
| 2026-05-04 17:07 | 42.36448 | 4.75851 | 35953 ft | 496 kts | 40° |
| 2026-05-04 17:08 | 42.44146 | 4.85214 | 35953 ft | 495 kts | 40° |
| 2026-05-04 17:09 | 42.49265 | 4.91471 | 35959 ft | 495 kts | 40° |
| 2026-05-04 17:09 | 42.54355 | 4.97692 | 35958 ft | 495 kts | 40° |
| 2026-05-04 17:10 | 42.67145 | 5.13387 | 35962 ft | 496 kts | 40° |
| 2026-05-04 17:11 | 42.72258 | 5.19696 | 35974 ft | 496 kts | 40° |
| 2026-05-04 17:12 | 42.79919 | 5.29174 | 35980 ft | 496 kts | 40° |
| 2026-05-04 17:13 | 42.92667 | 5.45018 | 35989 ft | 496 kts | 40° |
| 2026-05-04 17:14 | 43.02851 | 5.57714 | 35987 ft | 495 kts | 40° |
| 2026-05-04 17:15 | 43.10431 | 5.67232 | 36012 ft | 495 kts | 40° |
| 2026-05-04 17:16 | 43.20572 | 5.79993 | 36032 ft | 495 kts | 40° |
| 2026-05-04 17:17 | 43.30681 | 5.92782 | 36050 ft | 494 kts | 40° |
| 2026-05-04 17:17 | 43.38714 | 6.01455 | 36050 ft | 486 kts | 22° |
| 2026-05-04 17:18 | 43.41800 | 6.03264 | 36043 ft | 479 kts | 13° |
| 2026-05-04 17:18 | 43.48235 | 6.04930 | 36048 ft | 466 kts | 357° |
| 2026-05-04 17:19 | 43.54710 | 6.05567 | 36034 ft | 466 kts | 358° |
| 2026-05-04 17:20 | 43.67640 | 6.06889 | 36039 ft | 466 kts | 358° |
| 2026-05-04 17:20 | 43.77315 | 6.08501 | 36036 ft | 475 kts | 11° |
| 2026-05-04 17:21 | 43.83448 | 6.12131 | 36024 ft | 482 kts | 22° |
| 2026-05-04 17:21 | 43.89464 | 6.16247 | 36046 ft | 481 kts | 22° |
| 2026-05-04 17:22 | 43.95473 | 6.20340 | 36049 ft | 481 kts | 22° |
| 2026-05-04 17:23 | 44.07469 | 6.28551 | 36070 ft | 480 kts | 22° |
| 2026-05-04 17:24 | 44.16436 | 6.34727 | 36068 ft | 479 kts | 22° |
| 2026-05-04 17:25 | 44.28376 | 6.42967 | 36097 ft | 478 kts | 22° |
| 2026-05-04 17:26 | 44.40280 | 6.51219 | 36070 ft | 477 kts | 22° |
| 2026-05-04 17:27 | 44.55077 | 6.61541 | 36113 ft | 475 kts | 22° |
| 2026-05-04 17:28 | 44.66910 | 6.69811 | 36135 ft | 475 kts | 22° |
| 2026-05-04 17:29 | 44.85191 | 6.78704 | 36155 ft | 453 kts | 352° |
| 2026-05-04 17:31 | 45.00904 | 6.77659 | 36163 ft | 451 kts | 352° |
| 2026-05-04 17:31 | 45.10295 | 6.77053 | 34842 ft | 447 kts | 352° |
| 2026-05-04 17:32 | 45.16451 | 6.76651 | 33711 ft | 444 kts | 352° |
| 2026-05-04 17:33 | 45.25619 | 6.76050 | 32118 ft | 435 kts | 353° |
| 2026-05-04 17:33 | 45.28635 | 6.75846 | 31595 ft | 433 kts | 353° |
| 2026-05-04 17:34 | 45.37447 | 6.74381 | 30162 ft | 419 kts | 346° |
| 2026-05-04 17:34 | 45.40300 | 6.73600 | 29659 ft | 416 kts | 346° |
| 2026-05-04 17:35 | 45.48701 | 6.71312 | 28343 ft | 404 kts | 346° |
| 2026-05-04 17:35 | 45.54162 | 6.69830 | 27453 ft | 395 kts | 346° |
| 2026-05-04 17:35 | 45.56850 | 6.69125 | 27020 ft | 392 kts | 346° |
| 2026-05-04 17:36 | 45.59526 | 6.68435 | 26587 ft | 390 kts | 346° |
| 2026-05-04 17:36 | 45.62198 | 6.67749 | 26126 ft | 389 kts | 346° |
| 2026-05-04 17:36 | 45.64860 | 6.67068 | 25675 ft | 387 kts | 346° |
| 2026-05-04 17:36 | 45.67507 | 6.66387 | 25203 ft | 386 kts | 346° |
| 2026-05-04 17:37 | 45.70148 | 6.65702 | 24733 ft | 386 kts | 346° |
| 2026-05-04 17:37 | 45.72795 | 6.65014 | 24210 ft | 388 kts | 346° |
| 2026-05-04 17:37 | 45.75449 | 6.64320 | 23716 ft | 387 kts | 346° |
| 2026-05-04 17:37 | 45.78097 | 6.63615 | 23180 ft | 386 kts | 346° |
| 2026-05-04 17:38 | 45.80738 | 6.62901 | 22687 ft | 385 kts | 346° |
| 2026-05-04 17:38 | 45.83363 | 6.62190 | 22213 ft | 383 kts | 346° |
| 2026-05-04 17:38 | 45.85944 | 6.61491 | 21737 ft | 383 kts | 346° |
| 2026-05-04 17:38 | 45.88562 | 6.60782 | 21250 ft | 381 kts | 346° |
| 2026-05-04 17:39 | 45.93740 | 6.59381 | 20336 ft | 376 kts | 345° |
| 2026-05-04 17:39 | 45.96305 | 6.58680 | 19875 ft | 375 kts | 345° |
| 2026-05-04 17:39 | 45.98867 | 6.57978 | 19418 ft | 374 kts | 346° |
| 2026-05-04 17:40 | 46.01416 | 6.57258 | 18965 ft | 371 kts | 342° |
| 2026-05-04 17:40 | 46.03811 | 6.55969 | 18507 ft | 364 kts | 327° |
| 2026-05-04 17:40 | 46.05869 | 6.53926 | 18102 ft | 355 kts | 314° |
| 2026-05-04 17:40 | 46.07499 | 6.51324 | 17583 ft | 347 kts | 301° |
| 2026-05-04 17:41 | 46.08846 | 6.48460 | 17136 ft | 344 kts | 300° |
| 2026-05-04 17:41 | 46.10188 | 6.45612 | 16760 ft | 341 kts | 300° |
| 2026-05-04 17:41 | 46.11524 | 6.42786 | 16367 ft | 340 kts | 300° |
| 2026-05-04 17:41 | 46.12853 | 6.39977 | 15933 ft | 338 kts | 300° |
| 2026-05-04 17:42 | 46.14170 | 6.37194 | 15546 ft | 336 kts | 301° |
| 2026-05-04 17:42 | 46.15485 | 6.34411 | 15120 ft | 335 kts | 301° |
| 2026-05-04 17:42 | 46.16928 | 6.31774 | 14601 ft | 340 kts | 317° |
| 2026-05-04 17:42 | 46.18998 | 6.30159 | 14339 ft | 341 kts | 342° |
| 2026-05-04 17:43 | 46.21346 | 6.29939 | 14087 ft | 340 kts | 8° |
| 2026-05-04 17:43 | 46.22828 | 6.30611 | 14003 ft | 335 kts | 25° |
| 2026-05-04 17:43 | 46.24664 | 6.32585 | 13765 ft | 326 kts | 44° |
| 2026-05-04 17:43 | 46.26273 | 6.34881 | 13091 ft | 323 kts | 45° |
| 2026-05-04 17:44 | 46.27836 | 6.37189 | 12435 ft | 320 kts | 45° |
| 2026-05-04 17:44 | 46.29377 | 6.39489 | 11792 ft | 317 kts | 45° |
| 2026-05-04 17:44 | 46.30902 | 6.41768 | 11140 ft | 315 kts | 46° |
| 2026-05-04 17:44 | 46.32434 | 6.44057 | 10647 ft | 317 kts | 46° |
| 2026-05-04 17:45 | 46.33964 | 6.46344 | 10317 ft | 315 kts | 47° |
| 2026-05-04 17:45 | 46.35505 | 6.48646 | 9612 ft | 325 kts | 47° |
| 2026-05-04 17:45 | 46.37078 | 6.50970 | 9404 ft | 317 kts | 44° |
| 2026-05-04 17:45 | 46.38906 | 6.52575 | 9299 ft | 303 kts | 13° |
| 2026-05-04 17:46 | 46.40941 | 6.52636 | 9027 ft | 291 kts | 341° |
| 2026-05-04 17:46 | 46.42670 | 6.51228 | 8547 ft | 285 kts | 314° |
| 2026-05-04 17:46 | 46.43880 | 6.49012 | 8120 ft | 279 kts | 294° |
| 2026-05-04 17:46 | 46.44529 | 6.46362 | 7431 ft | 283 kts | 276° |
| 2026-05-04 17:47 | 46.44502 | 6.43537 | 7023 ft | 277 kts | 255° |
| 2026-05-04 17:47 | 46.43864 | 6.40968 | 6716 ft | 267 kts | 238° |
| 2026-05-04 17:47 | 46.42754 | 6.38870 | 6394 ft | 260 kts | 223° |
| 2026-05-04 17:47 | 46.41497 | 6.37014 | 6043 ft | 256 kts | 224° |
| 2026-05-04 17:48 | 46.40267 | 6.35190 | 5697 ft | 251 kts | 223° |
| 2026-05-04 17:48 | 46.39053 | 6.33390 | 5363 ft | 248 kts | 224° |
| 2026-05-04 17:48 | 46.37856 | 6.31616 | 5037 ft | 244 kts | 223° |
| 2026-05-04 17:48 | 46.36678 | 6.29873 | 4714 ft | 240 kts | 223° |
| 2026-05-04 17:49 | 46.35515 | 6.28153 | 4389 ft | 237 kts | 224° |
| 2026-05-04 17:49 | 46.34368 | 6.26457 | 4071 ft | 235 kts | 224° |
| 2026-05-04 17:49 | 46.33227 | 6.24773 | 3757 ft | 234 kts | 224° |
| 2026-05-04 17:49 | 46.32090 | 6.23095 | 3452 ft | 232 kts | 225° |
| 2026-05-04 17:50 | 46.30984 | 6.21462 | 3140 ft | 221 kts | 225° |
| 2026-05-04 17:50 | 46.29932 | 6.19911 | 2832 ft | 211 kts | 225° |
| 2026-05-04 17:50 | 46.28929 | 6.18434 | 2546 ft | 200 kts | 225° |
| 2026-05-04 17:50 | 46.27981 | 6.17037 | 2266 ft | 190 kts | 226° |
| 2026-05-04 17:51 | 46.27065 | 6.15690 | 1991 ft | 186 kts | 226° |
| 2026-05-04 17:51 | 46.26193 | 6.14408 | 1741 ft | 171 kts | 227° |
| 2026-05-04 17:51 | 46.25413 | 6.13260 | 1526 ft | 152 kts | 226° |
| 2026-05-04 17:51 | 46.24627 | 6.12107 | 1854 ft | 168 kts | 226° |
| 2026-05-04 17:52 | 46.23808 | 6.10898 | 2830 ft | 173 kts | 225° |
| 2026-05-04 17:52 | 46.22935 | 6.09577 | 3218 ft | 192 kts | 226° |
| 2026-05-04 17:52 | 46.21975 | 6.08088 | 3518 ft | 213 kts | 226° |
| 2026-05-04 17:52 | 46.20906 | 6.06427 | 3891 ft | 238 kts | 225° |
| 2026-05-04 17:53 | 46.19782 | 6.04756 | 5122 ft | 220 kts | 223° |
| 2026-05-04 17:53 | 46.18765 | 6.03292 | 6248 ft | 200 kts | 223° |
| 2026-05-04 17:53 | 46.17783 | 6.01901 | 6711 ft | 192 kts | 223° |
| 2026-05-04 17:53 | 46.16850 | 6.00582 | 6937 ft | 190 kts | 223° |
| 2026-05-04 17:54 | 46.15893 | 5.99231 | 7040 ft | 203 kts | 223° |
| 2026-05-04 17:54 | 46.14776 | 5.97658 | 7057 ft | 244 kts | 223° |
| 2026-05-04 17:54 | 46.13438 | 5.96018 | 7060 ft | 257 kts | 210° |
| 2026-05-04 17:54 | 46.11726 | 5.95261 | 7057 ft | 263 kts | 185° |
| 2026-05-04 17:55 | 46.09924 | 5.95675 | 7055 ft | 266 kts | 160° |
| 2026-05-04 17:55 | 46.08401 | 5.97212 | 7053 ft | 273 kts | 134° |
| 2026-05-04 17:55 | 46.07489 | 5.99619 | 7035 ft | 280 kts | 107° |
| 2026-05-04 17:55 | 46.07451 | 6.02435 | 7037 ft | 288 kts | 78° |
| 2026-05-04 17:56 | 46.08361 | 6.05004 | 7037 ft | 293 kts | 48° |
| 2026-05-04 17:56 | 46.09997 | 6.06744 | 7058 ft | 294 kts | 30° |
| 2026-05-04 17:56 | 46.11728 | 6.08327 | 7057 ft | 295 kts | 34° |
| 2026-05-04 17:56 | 46.13397 | 6.10048 | 7057 ft | 295 kts | 37° |
| 2026-05-04 17:57 | 46.15043 | 6.11817 | 7028 ft | 295 kts | 37° |
| 2026-05-04 17:57 | 46.16666 | 6.13562 | 7029 ft | 295 kts | 37° |
| 2026-05-04 17:57 | 46.18319 | 6.15315 | 7029 ft | 295 kts | 37° |
| 2026-05-04 17:57 | 46.19979 | 6.17053 | 7028 ft | 295 kts | 36° |
| 2026-05-04 17:58 | 46.21655 | 6.18788 | 7024 ft | 295 kts | 36° |
| 2026-05-04 17:58 | 46.23328 | 6.20510 | 7025 ft | 295 kts | 36° |
| 2026-05-04 17:58 | 46.25004 | 6.22229 | 7022 ft | 296 kts | 36° |
| 2026-05-04 17:58 | 46.26683 | 6.23950 | 7024 ft | 296 kts | 36° |
| 2026-05-04 17:59 | 46.28357 | 6.25670 | 7028 ft | 296 kts | 36° |
| 2026-05-04 17:59 | 46.30035 | 6.27398 | 7034 ft | 296 kts | 36° |
| 2026-05-04 17:59 | 46.33386 | 6.30854 | 7036 ft | 296 kts | 36° |
| 2026-05-04 18:00 | 46.35060 | 6.32579 | 7041 ft | 296 kts | 36° |
| 2026-05-04 18:00 | 46.36736 | 6.34310 | 7039 ft | 296 kts | 36° |
| 2026-05-04 18:00 | 46.38408 | 6.36040 | 7051 ft | 296 kts | 36° |
| 2026-05-04 18:00 | 46.40087 | 6.37777 | 7053 ft | 298 kts | 36° |
| 2026-05-04 18:01 | 46.41755 | 6.39501 | 7065 ft | 287 kts | 36° |
| 2026-05-04 18:01 | 46.43335 | 6.41136 | 7061 ft | 270 kts | 36° |
| 2026-05-04 18:01 | 46.44825 | 6.42679 | 7061 ft | 257 kts | 36° |
| 2026-05-04 18:02 | 46.47832 | 6.45343 | 6939 ft | 250 kts | 8° |
| 2026-05-04 18:02 | 46.49482 | 6.45025 | 6837 ft | 238 kts | 325° |
| 2026-05-04 18:02 | 46.50554 | 6.43339 | 6794 ft | 225 kts | 284° |
| 2026-05-04 18:02 | 46.50581 | 6.41193 | 6746 ft | 211 kts | 242° |
| 2026-05-04 18:03 | 46.49611 | 6.39703 | 6685 ft | 207 kts | 202° |
| 2026-05-04 18:03 | 46.48215 | 6.39147 | 6554 ft | 209 kts | 195° |
| 2026-05-04 18:03 | 46.46815 | 6.38587 | 6383 ft | 208 kts | 196° |
| 2026-05-04 18:03 | 46.45421 | 6.38022 | 6185 ft | 208 kts | 196° |
| 2026-05-04 18:04 | 46.44028 | 6.37456 | 5988 ft | 208 kts | 196° |
| 2026-05-04 18:04 | 46.42635 | 6.36891 | 5783 ft | 208 kts | 196° |
| 2026-05-04 18:04 | 46.40145 | 6.34910 | 5367 ft | 208 kts | 219° |
| 2026-05-04 18:05 | 46.39113 | 6.33468 | 5200 ft | 203 kts | 223° |
| 2026-05-04 18:05 | 46.38143 | 6.32040 | 5058 ft | 197 kts | 223° |
| 2026-05-04 18:05 | 46.37199 | 6.30643 | 4856 ft | 190 kts | 223° |
| 2026-05-04 18:05 | 46.36288 | 6.29295 | 4587 ft | 184 kts | 223° |
| 2026-05-04 18:06 | 46.34529 | 6.26696 | 4096 ft | 181 kts | 224° |
| 2026-05-04 18:06 | 46.33641 | 6.25384 | 3848 ft | 183 kts | 224° |
| 2026-05-04 18:06 | 46.32746 | 6.24062 | 3602 ft | 184 kts | 224° |
| 2026-05-04 18:07 | 46.31848 | 6.22737 | 3358 ft | 185 kts | 224° |
| 2026-05-04 18:07 | 46.30949 | 6.21410 | 3114 ft | 181 kts | 224° |
| 2026-05-04 18:07 | 46.30102 | 6.20161 | 2856 ft | 168 kts | 225° |
| 2026-05-04 18:07 | 46.29319 | 6.19007 | 2628 ft | 155 kts | 225° |
| 2026-05-04 18:08 | 46.28576 | 6.17913 | 2396 ft | 151 kts | 226° |
| 2026-05-04 18:08 | 46.27847 | 6.16840 | 2184 ft | 149 kts | 226° |
| 2026-05-04 18:08 | 46.27124 | 6.15777 | 1983 ft | 148 kts | 226° |
| 2026-05-04 18:08 | 46.26405 | 6.14719 | 1793 ft | 147 kts | 226° |
| 2026-05-04 18:09 | 46.24972 | 6.12612 | 1417 ft | 146 kts | 226° |
| 2026-05-04 18:09 | 46.24086 | 6.11309 | 1374 ft | 45 kts | 224° |
| 2026-05-04 18:10 | 46.23894 | 6.11030 | 1378 ft | 31 kts | 225° |
| 2026-05-04 18:10 | 46.23744 | 6.10827 | 1382 ft | 23 kts | 215° |
| 2026-05-04 18:10 | 46.23609 | 6.10736 | 1382 ft | 16 kts | 196° |
| 2026-05-04 18:10 | 46.23510 | 6.10694 | 1386 ft | 13 kts | 196° |
| 2026-05-04 18:11 | 46.23441 | 6.10665 | 1391 ft | 8 kts | 196° |
| 2026-05-04 18:11 | 46.23396 | 6.10636 | 1400 ft | 10 kts | 214° |
| 2026-05-04 18:11 | 46.23321 | 6.10527 | 1397 ft | 16 kts | 226° |
| 2026-05-04 18:11 | 46.23242 | 6.10410 | 1402 ft | 17 kts | 225° |
| 2026-05-04 18:12 | 46.23161 | 6.10358 | 1393 ft | 13 kts | 146° |
| 2026-05-04 18:12 | 46.23101 | 6.10443 | 1400 ft | 11 kts | 135° |
| 2026-05-04 18:12 | 46.23070 | 6.10508 | 1397 ft | 7 kts | 110° |
| 2026-05-04 18:12 | 46.23043 | 6.10555 | 1398 ft | 6 kts | 136° |
| 2026-05-04 18:13 | 46.23032 | 6.10569 | 1396 ft | 1 kts | 136° |
| 2026-05-04 18:13 | 46.23031 | 6.10571 | 1396 ft | 0 kts | 135° |